Contact Us:
Email: info@sawbill.com
Phone: (218)663-7150
Fax: (218)663-7980
Mail: 4620 Sawbill Trail
Box 2129
Tofte, MN 55615


Powered by
Movable Type 3.15
 
Sawbill Weather History Archives: May 2008
Current Sawbill Weather History | « April 2008 | June 2008 »


Date

High
Temperature

Low
Temperature

Barometric
Pressure

Relative
Humidity 7AM

9 AM
Temperature

Moisture

Snow

5/31/08 61 43 29.88 93% 49 .02"
5/30/08 56 45 29.71 96% 48 .1"
5/29/08 70 47 29.71 96% 48 .35"
5/28/08 67 36 30.15 79% 48 0
5/27/08 56 33 30.33 79% 37 0
5/26/08 49 31 30.27 89% 34 .08"
5/25/08 70 40 29.65 97% 48 .4"
5/24/08 64 45 29.85 94% 48 .13"
5/23/08 63 37 30.27 64% 50 0
5/22/08 53 40 30.24 58% 44 0
5/21/08 55 37 29.94 74% 45 0
5/20/08 49 34 29.77 81% 37 0
5/19/08 55 38 29.71 54% 41 0
5/18/08 48 31 29.71 72% 37 0
5/16/08 64 38 29.52 67% 48 0
5/15/08 62 42 29.84 92% 54 .22"
5/14/08 57 33 30.01 45% 57 0
5/13/08 47 33 29.83 96% 36 .21"
5/12/08 43 31 29.77 97% 38 .22" Trace
5/11/08 46 26 29.94 88% 33 0
5/10/08 46 32 29.77 97% 32 .11" Trace
5/9/08 54 30 29.93 65% 33 0
5/8/08 55 30 29.88 72% 34 0
5/7/08 53 26 29.91 98% 36 0
5/6/08 61 39 29.68 98% 39 .33"
5/5/08 48 31 29.88 63% 43 0
5/4/08 50 24 29.74 55% 29 0
5/3/08 36 26 29.83 51% 29 0
5/2/08 50 34 29.78 69% 6 1.14" 2"
5/1/08 53 36 29.77 67% 38 .05"
 


Home I Trip Planning I Rentals and Outfitting I Reservations I Campgrounds I Sawbill Store I Sawbill News I Contact

© 1997 - 2017, Sawbill Canoe Outfitters, Inc. I Privacy Policy